createdAt,value
2023-02-16T00:02:38.697Z,31.50
2023-02-16T00:06:53.008Z,32.38
2023-02-16T00:11:24.008Z,32.90
2023-02-16T00:15:36.356Z,37.03
2023-02-16T00:19:48.757Z,43.25
2023-02-16T00:24:01.131Z,37.40
2023-02-16T00:28:20.146Z,43.63
2023-02-16T00:32:32.468Z,48.70
2023-02-16T00:36:44.668Z,41.28
2023-02-16T00:40:56.989Z,21.23
2023-02-16T00:45:22.944Z,31.85
2023-02-16T00:49:35.278Z,30.65
2023-02-16T00:53:47.660Z,35.67
2023-02-16T00:58:15.460Z,36.30
2023-02-16T01:02:28.257Z,41.20
2023-02-16T01:06:59.552Z,43.35
2023-02-16T01:11:12.980Z,46.97
2023-02-16T01:15:26.970Z,15.73
2023-02-16T01:19:39.635Z,28.52
2023-02-16T01:23:52.004Z,25.63
2023-02-16T01:28:19.565Z,21.50
2023-02-16T01:32:32.068Z,25.35
2023-02-16T01:36:47.235Z,23.92
2023-02-16T01:41:25.270Z,25.23
2023-02-16T01:45:42.365Z,25.33
2023-02-16T01:49:54.660Z,27.95
2023-02-16T01:54:20.744Z,28.73
2023-02-16T01:58:50.266Z,27.17
2023-02-16T02:03:23.769Z,24.95
2023-02-16T02:07:57.447Z,14.45
2023-02-16T02:12:59.164Z,14.65
2023-02-16T02:17:18.300Z,27.60
2023-02-16T02:22:26.129Z,35.58
2023-02-16T02:26:58.670Z,26.52
2023-02-16T02:31:27.119Z,34.92
2023-02-16T02:35:50.194Z,26.65
2023-02-16T02:40:34.516Z,15.45
2023-02-16T02:44:57.807Z,28.60
2023-02-16T02:49:10.411Z,10.85
2023-02-16T02:53:22.751Z,20.27
2023-02-16T02:57:57.998Z,17.73
2023-02-16T03:02:11.804Z,19.60
2023-02-16T03:06:34.021Z,21.13
2023-02-16T03:11:09.626Z,21.67
2023-02-16T03:15:25.531Z,23.58
2023-02-16T03:19:59.086Z,27.52
2023-02-16T03:24:34.844Z,29.90
2023-02-16T03:29:06.918Z,33.30
2023-02-16T03:33:20.879Z,22.42
2023-02-16T03:37:33.584Z,23.70
2023-02-16T03:41:51.741Z,46.15
2023-02-16T03:46:04.205Z,37.83
2023-02-16T03:50:16.762Z,35.85
2023-02-16T03:54:29.138Z,23.48
2023-02-16T03:58:41.615Z,36.33
2023-02-16T04:02:54.074Z,35.08
2023-02-16T04:07:06.465Z,17.75
2023-02-16T04:11:37.119Z,36.55
2023-02-16T04:20:01.827Z,34.42
2023-02-16T04:24:14.206Z,33.00
2023-02-16T04:28:26.552Z,39.10
2023-02-16T04:32:39.174Z,28.42
2023-02-16T04:36:51.523Z,17.42
2023-02-16T04:41:04.141Z,25.17
2023-02-16T04:45:16.864Z,24.50
2023-02-16T04:49:29.150Z,21.17
2023-02-16T04:53:41.741Z,20.98
2023-02-16T04:57:54.098Z,19.90
2023-02-16T05:02:07.664Z,21.45
2023-02-16T05:06:20.079Z,22.70
2023-02-16T05:10:32.502Z,20.77
2023-02-16T05:14:45.832Z,13.15
2023-02-16T05:18:58.870Z,20.77
2023-02-16T05:23:11.620Z,17.45
2023-02-16T05:27:27.084Z,19.65
2023-02-16T05:31:39.526Z,17.88
2023-02-16T05:35:51.903Z,16.85
2023-02-16T05:40:04.484Z,17.35
2023-02-16T05:44:17.617Z,18.38
2023-02-16T05:48:29.848Z,20.75
2023-02-16T05:52:42.340Z,18.92
2023-02-16T05:56:54.781Z,37.22
2023-02-16T06:01:07.493Z,33.08
2023-02-16T06:05:20.069Z,58.38
2023-02-16T06:09:32.542Z,54.20
2023-02-16T06:13:45.018Z,27.08
2023-02-16T06:17:57.397Z,58.67
2023-02-16T06:22:10.104Z,53.80
2023-02-16T06:26:22.523Z,66.30
2023-02-16T06:30:35.720Z,64.93
2023-02-16T06:34:48.245Z,65.18
2023-02-16T06:39:00.503Z,51.03
2023-02-16T06:43:13.537Z,85.32
2023-02-16T06:47:25.846Z,89.85
2023-02-16T06:51:40.508Z,85.53
2023-02-16T06:55:53.001Z,75.90
2023-02-16T07:00:07.806Z,82.30
2023-02-16T07:04:21.227Z,73.95
2023-02-16T07:08:35.823Z,58.58
2023-02-16T07:12:49.158Z,82.80
2023-02-16T07:17:04.576Z,67.70
2023-02-16T07:21:17.015Z,71.72
2023-02-16T07:25:29.444Z,65.38
2023-02-16T07:29:41.874Z,66.22
2023-02-16T07:33:54.215Z,75.68
2023-02-16T07:38:08.122Z,66.63
2023-02-16T07:42:21.516Z,64.65
2023-02-16T07:46:34.187Z,82.50
2023-02-16T07:50:46.531Z,58.13
2023-02-16T07:54:59.569Z,53.55
2023-02-16T07:59:12.060Z,60.35
2023-02-16T08:03:26.079Z,63.05
2023-02-16T08:07:39.979Z,65.40
2023-02-16T08:11:53.309Z,70.38
2023-02-16T08:16:21.693Z,57.92
2023-02-16T08:20:57.281Z,54.25
2023-02-16T08:25:07.284Z,58.22
2023-02-16T08:29:21.113Z,62.22
2023-02-16T08:33:34.524Z,62.88
2023-02-16T08:37:47.495Z,63.75
2023-02-16T08:42:01.986Z,43.00
2023-02-16T08:46:14.797Z,54.08
2023-02-16T08:50:27.256Z,49.03
2023-02-16T08:54:41.186Z,52.35
2023-02-16T08:58:53.569Z,48.30
2023-02-16T09:03:07.268Z,43.60
2023-02-16T09:07:22.581Z,39.55
2023-02-16T09:11:39.420Z,45.83
2023-02-16T09:15:55.993Z,36.88
2023-02-16T09:20:09.635Z,27.25
2023-02-16T09:24:22.264Z,30.02
2023-02-16T09:28:37.839Z,23.35
2023-02-16T09:32:53.002Z,20.17
2023-02-16T09:37:06.110Z,22.05
2023-02-16T09:41:52.409Z,19.17
2023-02-16T09:46:11.964Z,15.40
2023-02-16T09:50:52.212Z,23.83
2023-02-16T09:55:04.264Z,20.55
2023-02-16T09:59:43.783Z,12.82
2023-02-16T10:04:15.484Z,10.52
2023-02-16T10:08:42.594Z,14.15
2023-02-16T10:13:05.535Z,12.73
2023-02-16T10:17:36.494Z,9.95
2023-02-16T10:21:53.178Z,16.05
2023-02-16T10:26:20.343Z,10.95
2023-02-16T10:30:33.367Z,15.50
2023-02-16T10:34:51.298Z,12.63
2023-02-16T10:39:19.932Z,17.17
2023-02-16T10:43:45.395Z,14.85
2023-02-16T10:47:58.191Z,12.65
2023-02-16T10:52:12.248Z,18.63
2023-02-16T10:56:38.069Z,18.67
2023-02-16T11:00:56.628Z,12.45
2023-02-16T11:05:31.395Z,12.65
2023-02-16T11:09:46.390Z,14.05
2023-02-16T11:14:09.670Z,14.70
2023-02-16T11:18:45.300Z,13.57
2023-02-16T11:23:22.373Z,24.90
2023-02-16T11:27:34.756Z,19.80
2023-02-16T11:31:50.343Z,18.08
2023-02-16T11:36:05.669Z,15.80
2023-02-16T11:40:24.495Z,17.38
2023-02-16T11:44:44.707Z,14.82
2023-02-16T11:48:57.150Z,17.05
2023-02-16T11:53:12.569Z,20.27
2023-02-16T11:57:28.729Z,24.20
2023-02-16T12:02:05.987Z,18.65
2023-02-16T12:06:24.068Z,24.83
2023-02-16T12:10:40.129Z,25.58
2023-02-16T12:15:09.245Z,20.83
2023-02-16T12:19:21.529Z,20.35
2023-02-16T12:23:55.357Z,16.35
2023-02-16T12:28:22.533Z,17.92
2023-02-16T12:32:43.459Z,23.13
2023-02-16T12:37:18.594Z,14.60
2023-02-16T12:41:54.521Z,15.63
2023-02-16T12:46:14.637Z,19.10
2023-02-16T12:50:29.720Z,21.67
2023-02-16T12:54:49.243Z,27.00
2023-02-16T12:59:15.847Z,16.95
2023-02-16T13:03:38.436Z,15.77
2023-02-16T13:07:55.596Z,20.25
2023-02-16T13:12:32.076Z,18.45
2023-02-16T13:17:32.144Z,16.48
2023-02-16T13:21:54.439Z,18.85
2023-02-16T13:26:20.074Z,19.02
2023-02-16T13:30:52.166Z,17.88
2023-02-16T13:35:30.215Z,16.30
2023-02-16T13:40:19.348Z,20.52
2023-02-16T13:44:42.786Z,19.80
2023-02-16T13:48:56.828Z,19.80
2023-02-16T13:53:17.903Z,20.63
2023-02-16T13:58:01.857Z,17.90
2023-02-16T14:02:54.782Z,17.52
2023-02-16T14:07:11.256Z,15.85
2023-02-16T14:11:23.723Z,19.25
2023-02-16T14:15:55.284Z,19.27
2023-02-16T14:20:29.907Z,15.93
2023-02-16T14:24:44.717Z,18.08
2023-02-16T14:29:10.105Z,18.45
2023-02-16T14:33:41.510Z,16.92
2023-02-16T14:37:57.024Z,17.23
2023-02-16T14:42:27.904Z,20.48
2023-02-16T14:46:48.532Z,17.77
2023-02-16T14:51:31.377Z,18.15
2023-02-16T14:56:03.257Z,17.83
2023-02-16T15:00:33.867Z,17.52
2023-02-16T15:09:31.332Z,23.23
2023-02-16T15:13:45.982Z,21.42
2023-02-16T15:18:17.329Z,17.67
2023-02-16T15:22:30.207Z,16.77
2023-02-16T15:26:57.239Z,21.50
2023-02-16T15:31:18.947Z,18.98
2023-02-16T15:35:40.964Z,22.05
2023-02-16T15:40:24.871Z,28.98
2023-02-16T15:44:39.480Z,28.10
2023-02-16T15:48:52.166Z,25.17
2023-02-16T15:53:05.839Z,29.27
2023-02-16T15:57:26.587Z,27.25
2023-02-16T16:01:38.940Z,30.35
2023-02-16T16:06:02.852Z,28.63
2023-02-16T16:10:29.400Z,28.42
2023-02-16T16:14:55.302Z,32.85
2023-02-16T16:19:17.100Z,31.60
2023-02-16T16:23:30.922Z,34.88
2023-02-16T16:27:48.395Z,40.80
2023-02-16T16:32:02.020Z,33.03
2023-02-16T16:36:14.898Z,34.88
2023-02-16T16:40:34.150Z,30.92
2023-02-16T16:45:07.300Z,41.60
2023-02-16T16:49:20.125Z,48.10
2023-02-16T16:53:38.803Z,54.55
2023-02-16T16:57:54.536Z,53.60
2023-02-16T17:02:07.050Z,50.15
2023-02-16T17:06:20.477Z,53.83
2023-02-16T17:10:33.028Z,62.15
2023-02-16T17:14:45.542Z,63.38
2023-02-16T17:18:57.908Z,71.63
2023-02-16T17:23:15.345Z,78.10
2023-02-16T17:27:27.745Z,71.80
2023-02-16T17:31:40.210Z,84.28
2023-02-16T17:35:52.539Z,78.07
2023-02-16T17:40:10.641Z,69.47
2023-02-16T17:44:22.950Z,86.03
2023-02-16T17:48:36.981Z,84.07
2023-02-16T17:52:49.778Z,78.35
2023-02-16T17:57:02.356Z,86.15
2023-02-16T18:01:16.999Z,79.22
2023-02-16T18:05:29.661Z,107.93
2023-02-16T18:09:42.288Z,92.05
2023-02-16T18:13:54.752Z,82.72
2023-02-16T18:18:08.487Z,91.32
2023-02-16T18:22:21.044Z,95.32
2023-02-16T18:26:33.980Z,99.13
2023-02-16T18:30:49.448Z,100.65
2023-02-16T18:35:04.232Z,90.45
2023-02-16T18:39:16.718Z,102.90
2023-02-16T18:43:30.012Z,101.07
2023-02-16T18:47:46.854Z,101.18
2023-02-16T18:52:00.430Z,97.22
2023-02-16T18:56:13.070Z,104.75
2023-02-16T19:00:25.348Z,110.20
2023-02-16T19:04:38.657Z,101.47
2023-02-16T19:08:54.303Z,85.22
2023-02-16T19:13:07.556Z,84.00
2023-02-16T19:17:20.245Z,82.97
2023-02-16T19:21:33.274Z,81.32
2023-02-16T19:25:45.627Z,73.53
2023-02-16T19:29:58.163Z,59.80
2023-02-16T19:34:10.760Z,61.60
2023-02-16T19:38:23.174Z,57.10
2023-02-16T19:42:35.634Z,56.15
2023-02-16T19:46:48.033Z,49.95
2023-02-16T19:51:02.601Z,48.92
2023-02-16T19:55:15.459Z,58.47
2023-02-16T19:59:28.356Z,50.45
2023-02-16T20:03:40.902Z,50.45
2023-02-16T20:07:53.434Z,47.72
2023-02-16T20:12:06.785Z,47.38
2023-02-16T20:16:20.028Z,47.53
2023-02-16T20:20:36.146Z,53.88
2023-02-16T20:24:48.496Z,53.30
2023-02-16T20:29:03.119Z,51.88
2023-02-16T20:33:15.861Z,47.63
2023-02-16T20:37:28.287Z,49.58
2023-02-16T20:41:41.655Z,49.15
2023-02-16T20:45:54.077Z,51.95
2023-02-16T20:50:07.030Z,48.78
2023-02-16T20:54:19.366Z,53.75
2023-02-16T20:58:32.467Z,50.53
2023-02-16T21:02:44.809Z,53.13
2023-02-16T21:06:58.198Z,49.83
2023-02-16T21:11:11.769Z,53.80
2023-02-16T21:15:24.571Z,47.28
2023-02-16T21:19:38.362Z,53.78
2023-02-16T21:23:54.400Z,52.55
2023-02-16T21:28:06.966Z,46.85
2023-02-16T21:32:20.552Z,52.13
2023-02-16T21:36:33.087Z,47.53
2023-02-16T21:41:03.940Z,44.08
2023-02-16T21:45:17.617Z,48.88
2023-02-16T21:49:29.950Z,47.63
2023-02-16T21:53:46.945Z,51.22
2023-02-16T21:57:59.319Z,50.85
2023-02-16T22:02:11.742Z,56.60
2023-02-16T22:06:25.629Z,53.85
2023-02-16T22:10:38.025Z,50.25
2023-02-16T22:14:50.443Z,47.50
2023-02-16T22:19:16.449Z,44.20
2023-02-16T22:23:28.921Z,45.55
2023-02-16T22:27:41.628Z,45.85
2023-02-16T22:31:54.028Z,49.35
2023-02-16T22:36:10.246Z,48.25
2023-02-16T22:40:22.735Z,48.53
2023-02-16T22:44:35.221Z,52.88
2023-02-16T22:48:47.438Z,54.72
2023-02-16T22:52:59.890Z,51.45
2023-02-16T22:57:12.280Z,49.78
2023-02-16T23:01:26.459Z,46.13
2023-02-16T23:05:39.600Z,59.53
2023-02-16T23:09:54.874Z,47.80
2023-02-16T23:14:16.500Z,47.83
2023-02-16T23:18:29.057Z,43.22
2023-02-16T23:22:41.411Z,41.88
2023-02-16T23:26:54.053Z,38.38
2023-02-16T23:31:07.133Z,37.30
2023-02-16T23:35:19.468Z,38.45
2023-02-16T23:39:32.716Z,38.88
2023-02-16T23:43:45.084Z,44.95
2023-02-16T23:47:57.437Z,38.83
2023-02-16T23:52:09.782Z,39.40
2023-02-16T23:56:24.782Z,36.63
